メインページ
METAR-TAF:

METAR-TAF

空港 :

ラバト=サレ空港

ラバト, モロッコ

緯度: 34-03N, 経度: 006-46W, 海抜: 84m

現時点の気象観測

当レポートは24分前の14:30(UTC)に作成
の風 8kt
気温 15°C
湿度 63%
気圧 1025 hPa
視程10km以上
1,500メートル以下は雲なし、積乱雲なし

METAR: GMME 161430Z 01008KT CAVOK 15/08 Q1025 NOSIG

時間: 15:54 (14:54 UTC)

予報

当レポートは3時間54分前の11:00(UTC)に作成
予報は16日の 12時(UTC)から 17日の 18時(UTC)まで有効
の風 8kt
視程10km以上
1,500メートル以下は雲なし、積乱雲なし
16日の 18時(UTC)から 16日の 24時(UTC)まで一時的に
東/北東の風 6kt
視程: 7000m
高度1000ftの雲は散在している
高度1500ftの雲は散在している
17日の 00時(UTC)から 17日の 12時(UTC)まで一時的に
南東の風 3kt
視程: 3000m
高度600ftの千切れ雲あり
高度1300ftの千切れ雲あり
17日の 02時(UTC)から 17日の 09時(UTC)まで一時的に
変向風 2kt
視程: 0600m
高度300ftの曇り

TAF: GMME 161100Z 1612/1718 36008KT CAVOK TEMPO 1618/1624 06006KT 7000 SCT010 SCT015 TEMPO 1700/1712 14003KT 3000 BR BKN006 BKN013 TEMPO 1702/1709 VRB02KT 0600 FG OVC003

4,000以上の空港の気象観測と天気予報(METAR報とTAF報)

利用可能な観測所は地図上に黄色い丸と赤い丸で示す。

丸の上にカーソルを重ねると観測所名を参照できる。

次にクリックすると気象観測と天気予報を参照できる。

マップの切り替え:黒色「×」印の緑ボタンをクリックして拡大、「-」印の緑ボタンをクリックして縮小、緑色の三角印をクリックして隣りの地図に切り替え


METAR-TAF: